Map

Track Data

SID SEASON NUMBER BASIN SUBBASIN NAME ISO_TIME NATURE LAT LON WMO_WIND WMO_PRES WMO_AGENCY TRACK_TYPE DIST2LAND LANDFALL IFLAG USA_AGENCY USA_ATCF_ID USA_LAT USA_LON USA_RECORD USA_STATUS USA_WIND USA_PRES USA_SSHS USA_R34_NE USA_R34_SE USA_R34_SW USA_R34_NW USA_R50_NE USA_R50_SE USA_R50_SW USA_R50_NW USA_R64_NE USA_R64_SE USA_R64_SW USA_R64_NW USA_POCI USA_ROCI USA_RMW USA_EYE TOKYO_LAT TOKYO_LON TOKYO_GRADE TOKYO_WIND TOKYO_PRES TOKYO_R50_DIR TOKYO_R50_LONG TOKYO_R50_SHORT TOKYO_R30_DIR TOKYO_R30_LONG TOKYO_R30_SHORT TOKYO_LAND CMA_LAT CMA_LON CMA_CAT CMA_WIND CMA_PRES HKO_LAT HKO_LON HKO_CAT HKO_WIND HKO_PRES NEWDELHI_LAT NEWDELHI_LON NEWDELHI_GRADE NEWDELHI_WIND NEWDELHI_PRES NEWDELHI_CI NEWDELHI_DP NEWDELHI_POCI REUNION_LAT REUNION_LON REUNION_TYPE REUNION_WIND REUNION_PRES REUNION_TNUM REUNION_CI REUNION_RMW REUNION_R34_NE REUNION_R34_SE REUNION_R34_SW REUNION_R34_NW REUNION_R50_NE REUNION_R50_SE REUNION_R50_SW REUNION_R50_NW REUNION_R64_NE REUNION_R64_SE REUNION_R64_SW REUNION_R64_NW BOM_LAT BOM_LON BOM_TYPE BOM_WIND BOM_PRES BOM_TNUM BOM_CI BOM_RMW BOM_R34_NE BOM_R34_SE BOM_R34_SW BOM_R34_NW BOM_R50_NE BOM_R50_SE BOM_R50_SW BOM_R50_NW BOM_R64_NE BOM_R64_SE BOM_R64_SW BOM_R64_NW BOM_ROCI BOM_POCI BOM_EYE BOM_POS_METHOD BOM_PRES_METHOD NADI_LAT NADI_LON NADI_CAT NADI_WIND NADI_PRES WELLINGTON_LAT WELLINGTON_LON WELLINGTON_WIND WELLINGTON_PRES DS824_LAT DS824_LON DS824_STAGE DS824_WIND DS824_PRES TD9636_LAT TD9636_LON TD9636_STAGE TD9636_WIND TD9636_PRES TD9635_LAT TD9635_LON TD9635_WIND TD9635_PRES TD9635_ROCI NEUMANN_LAT NEUMANN_LON NEUMANN_CLASS NEUMANN_WIND NEUMANN_PRES MLC_LAT MLC_LON MLC_CLASS MLC_WIND MLC_PRES USA_GUST BOM_GUST BOM_GUST_PER REUNION_GUST REUNION_GUST_PER USA_SEAHGT USA_SEARAD_NE USA_SEARAD_SE USA_SEARAD_SW USA_SEARAD_NW STORM_SPEED STORM_DIR
1961027S14161 1961 13 SP MM NOT_NAMED 1961-01-26 23:00:00 NR -14.3000 161.200 1000 bom main 397 397 ______O_______ -1 -14.3000 161.200 1000 1 0
1961027S14161 1961 13 SP MM NOT_NAMED 1961-01-27 00:00:00 TS -14.2970 161.219 main 397 397 O_____P__O__O_ jtwc_sh SH151961 -14.2000 161.300 -1 -14.3425 161.148 -14.3000 161.100 TC 30 1000 -14.3000 161.400 TC 30 1000 3 231
1961027S14161 1961 13 SP MM NOT_NAMED 1961-01-27 03:00:00 TS -14.4262 161.037 main 412 412 P_____P__P__P_ SH151961 -14.3051 160.973 -1 -14.4705 160.993 -14.4444 160.941 TC -14.4625 161.263 TC 30 1000 4 234
1961027S14161 1961 13 SP MM NOT_NAMED 1961-01-27 06:00:00 TS -14.5512 160.853 main 436 436 O_____P__P__O_ jtwc_sh SH151961 -14.4000 160.700 -1 -14.5996 160.837 -14.5892 160.782 TC -14.6000 161.100 TC 30 1000 4 236
1961027S14161 1961 13 SP MM NOT_NAMED 1961-01-27 09:00:00 TS -14.6627 160.680 main 452 452 P_____P__P__P_ SH151961 -14.4849 160.520 -1 -14.7309 160.679 -14.7351 160.622 TC -14.7000 160.900 TC 30 1000 4 234
1961027S14161 1961 13 SP MM NOT_NAMED 1961-01-27 12:00:00 TS -14.7870 160.520 main 469 469 O_____P__P__O_ jtwc_sh SH151961 -14.6000 160.400 -1 -14.8652 160.519 -14.8826 160.461 TC -14.8000 160.700 TC 30 1000 4 227
1961027S14161 1961 13 SP MM NOT_NAMED 1961-01-27 15:00:00 TS -14.9409 160.372 main 483 483 P_____P__P__P_ SH151961 -14.7850 160.292 -1 -15.0037 160.356 -15.0323 160.298 TC -14.9425 160.542 TC 30 1000 4 221
1961027S14161 1961 13 SP MM NOT_NAMED 1961-01-27 18:00:00 TS -15.1080 160.231 main 511 511 O_____P__P__O_ jtwc_sh SH151961 -15.0000 160.200 -1 -15.1472 160.189 -15.1847 160.134 TC -15.1000 160.400 TC 30 1000 4 220
1961027S14161 1961 13 SP MM NOT_NAMED 1961-01-27 21:00:00 TS -15.2699 160.088 main 536 536 P_____P__P__P_ SH151961 -15.2000 160.107 -1 -15.2966 160.017 -15.3404 159.968 TC -15.2425 160.257 TC 30 1000 4 221
1961027S14161 1961 13 SP EA NOT_NAMED 1961-01-27 23:00:00 TS -15.3810 159.988 1000 bom main 550 550 P_____O__P__P_ SH151961 -15.3333 160.039 -1 -15.4000 159.900 1000 -15.4463 159.856 TC -15.3443 160.156 TC 30 1000 4 221
1961027S14161 1961 13 SP EA NOT_NAMED 1961-01-28 00:00:00 TS -15.4382 159.935 main 554 554 O_____P__O__O_ jtwc_sh SH151961 -15.4000 160.000 -1 -15.4530 159.840 -15.5000 159.800 TC 30 1000 -15.4000 160.100 TC 30 1000 5 223
1961027S14161 1961 13 SP EA NOT_NAMED 1961-01-28 03:00:00 TS -15.6168 159.762 main 579 579 P_____P__P__P_ SH151961 -15.5925 159.857 -1 -15.6177 159.659 -15.6644 159.630 TC -15.5925 159.900 TC 30 999 5 222
1961027S14161 1961 13 SP EA NOT_NAMED 1961-01-28 06:00:00 TS -15.8074 159.583 main 608 608 O_____P__P__O_ jtwc_sh SH151961 -15.8000 159.700 -1 -15.7931 159.475 -15.8364 159.458 TC -15.8000 159.700 TC 30 999 5 220
1961027S14161 1961 13 SP EA NOT_NAMED 1961-01-28 09:00:00 TS -16.0126 159.420 main 637 637 P_____P__P__P_ SH151961 -16.0575 159.550 -1 -15.9814 159.291 -16.0189 159.288 TC -15.9925 159.550 TC 30 999 5 217
1961027S14161 1961 13 SP EA NOT_NAMED 1961-01-28 12:00:00 TS -16.2251 159.257 main 662 662 O_____P__P__O_ jtwc_sh SH151961 -16.3000 159.400 -1 -16.1850 159.109 -16.2152 159.119 TC -16.2000 159.400 TC 30 999 5 217
1961027S14161 1961 13 SP EA NOT_NAMED 1961-01-28 15:00:00 TS -16.4355 159.084 main 676 669 P_____P__P__P_ SH151961 -16.4575 159.250 -1 -16.4062 158.932 -16.4283 158.955 TC -16.4500 159.200 TC 32 998 5 218
1961027S14161 1961 13 SP EA NOT_NAMED 1961-01-28 18:00:00 TS -16.6522 158.914 main 671 667 O_____P__P__O_ jtwc_sh SH151961 -16.6000 159.100 -1 -16.6474 158.762 -16.6614 158.796 TC -16.7000 159.000 TC 35 998 5 216
1961027S14161 1961 13 SP EA NOT_NAMED 1961-01-28 21:00:00 TS -16.8746 158.757 main 667 667 P_____P__P__P_ SH151961 -16.7850 158.950 -1 -16.9108 158.601 -16.9176 158.644 TC -16.8850 158.835 TC 35 998 5 212
1961027S14161 1961 13 SP EA NOT_NAMED 1961-01-28 23:00:00 TS -17.0366 158.660 998 bom main 669 663 P_____O__P__P_ SH151961 -16.9250 158.850 -1 -17.1000 158.500 998 -17.1028 158.547 TC -17.0188 158.742 TC 35 998 6 208
1961027S14161 1961 13 SP EA NOT_NAMED 1961-01-29 00:00:00 TS -17.1232 158.612 main 671 663 O_____P__O__O_ jtwc_sh SH151961 -17.0000 158.800 -1 -17.1927 158.448 -17.2000 158.500 TC 35 998 -17.1000 158.700 TC 35 998 6 206
1961027S14161 1961 13 SP EA NOT_NAMED 1961-01-29 03:00:00 TS -17.4115 158.472 main 663 656 P_____P__P__P_ SH151961 -17.2350 158.643 -1 -17.4861 158.296 -17.4974 158.350 TC -17.4275 158.600 TC 35 998 7 203
1961027S14161 1961 13 SP EA NOT_NAMED 1961-01-29 06:00:00 TS -17.7306 158.340 main 666 656 O_____P__P__O_ jtwc_sh SH151961 -17.5000 158.500 -1 -17.8021 158.153 -17.8202 158.206 TC -17.8000 158.500 TC 35 998 7 201
1961027S14161 1961 13 SP EA NOT_NAMED 1961-01-29 09:00:00 TS -18.0624 158.207 main 656 652 P_____P__P__P_ SH151961 -17.8000 158.385 -1 -18.1403 158.020 -18.1667 158.071 TC -18.1425 158.350 TC 35 998 7 200
1961027S14161 1961 13 SP EA NOT_NAMED 1961-01-29 12:00:00 TS -18.4089 158.087 main 654 650 O_____P__P__O_ jtwc_sh SH151961 -18.1000 158.300 -1 -18.5002 157.900 -18.5354 157.946 TC -18.5000 158.200 TC 35 998 7 196
1961027S14161 1961 13 SP EA NOT_NAMED 1961-01-29 15:00:00 TS -18.7659 157.991 main 650 647 P_____P__P__P_ SH151961 -18.3575 158.242 -1 -18.8816 157.795 -18.9246 157.835 TC -18.9000 158.092 TC 35 998 7 193
1961027S14161 1961 13 SP EA NOT_NAMED 1961-01-29 18:00:00 TS -19.1292 157.911 main 652 645 O_____P__P__O_ jtwc_sh SH151961 -18.6000 158.200 -1 -19.2839 157.706 -19.3328 157.738 TC -19.3000 158.000 TC 35 998 7 192
1961027S14161 1961 13 SP EA NOT_NAMED 1961-01-29 21:00:00 TS -19.4801 157.836 main 654 651 P_____P__P__P_ SH151961 -18.8200 158.165 -1 -19.7068 157.636 -19.7585 157.659 TC -19.6350 157.885 TC 35 998 7 190
1961027S14161 1961 13 SP EA NOT_NAMED 1961-01-29 23:00:00 TS -19.7284 157.792 998 bom main 651 649 P_____O__P__P_ SH151961 -18.9938 158.128 -1 -20.0000 157.600 998 -20.0512 157.617 TC -19.8688 157.822 TC 35 998 8 189
1961027S14161 1961 13 SP EA NOT_NAMED 1961-01-30 00:00:00 TS -19.8633 157.770 main 648 647 O_____P__O__O_ jtwc_sh SH151961 -19.1000 158.100 -1 -20.1531 157.581 -20.2000 157.600 TC 35 998 -20.0000 157.800 TC 35 998 9 188
1961027S14161 1961 13 SP EA NOT_NAMED 1961-01-30 03:00:00 TS -20.3163 157.707 main 656 634 P_____P__P__P_ SH151961 -19.4975 157.958 -1 -20.6321 157.538 -20.6579 157.547 TC -20.4775 157.785 TC 35 998 10 186
1961027S14161 1961 13 SP EA NOT_NAMED 1961-01-30 06:00:00 TS -20.8176 157.657 main 634 588 O_____P__P__O_ jtwc_sh SH151961 -20.0000 157.800 -1 -21.1341 157.515 -21.1364 157.512 TC -21.0000 157.800 TC 35 998 10 185
1961027S14161 1961 13 SP EA NOT_NAMED 1961-01-30 09:00:00 TS -21.3356 157.615 main 588 552 P_____P__P__P_ SH151961 -20.5625 157.663 -1 -21.6506 157.509 -21.6295 157.497 TC -21.5000 157.793 TC 35 998 11 183
1961027S14161 1961 13 SP EA NOT_NAMED 1961-01-30 12:00:00 TS -21.8760 157.605 main 545 513 O_____P__P__O_ jtwc_sh SH151961 -21.2000 157.600 -1 -22.1729 157.521 -22.1310 157.500 TC -22.0000 157.800 TC 35 998 11 178
1961027S14161 1961 13 SP EA NOT_NAMED 1961-01-30 15:00:00 TS -22.4300 157.648 main 513 490 P_____P__P__P_ SH151961 -21.8925 157.670 -1 -22.6925 157.550 -22.6348 157.522 TC -22.5000 157.850 TC 35 998 11 175
1961027S14161 1961 13 SP EA NOT_NAMED 1961-01-30 18:00:00 TS -22.9840 157.714 main 490 475 O_____P__P__O_ jtwc_sh SH151961 -22.6000 157.800 -1 -23.2009 157.594 -23.1350 157.563 TC -23.0000 157.900 TC 35 998 11 174
1961027S14161 1961 13 SP EA NOT_NAMED 1961-01-30 21:00:00 TS -23.5275 157.769 main 476 465 P_____P__P__P_ SH151961 -23.2875 157.907 -1 -23.6895 157.653 -23.6254 157.622 TC -23.5075 157.893 TC 35 998 11 174
1961027S14161 1961 13 SP EA NOT_NAMED 1961-01-30 23:00:00 TS -23.8729 157.809 998 bom main 461 458 P_____O__P__P_ SH151961 -23.7088 157.972 -1 -24.0000 157.700 998 -23.9439 157.672 TC -23.8390 157.891 TC 35 998 10 174
1961027S14161 1961 13 SP EA NOT_NAMED 1961-01-31 00:00:00 TS -24.0374 157.831 main 458 455 O_____P__O__O_ jtwc_sh SH151961 -23.9000 158.000 -1 -24.1498 157.722 998 -24.1000 157.700 TC 35 998 -24.0000 157.900 TC 35 998 10 172
1961027S14161 1961 13 SP EA NOT_NAMED 1961-01-31 03:00:00 TS -24.4994 157.908 main 457 454 P_____P__P__P_ SH151961 -24.3875 158.058 -1 -24.5860 157.802 998 -24.5518 157.788 TC 35 998 -24.4725 157.985 TC 35 998 9 170
1961027S14161 1961 13 SP EA NOT_NAMED 1961-01-31 06:00:00 TS -24.9250 158.000 998 bom main 463 463 O_____O__O__O_ jtwc_sh SH151961 -24.8000 158.100 -1 -25.0000 157.900 998 4 -25.0000 157.900 TC 35 998 -24.9000 158.100 TC 35 998 8 169
1961027S14161 1961 13 SP EA NOT_NAMED 1961-01-31 09:00:00 TS -25.3261 158.088 main 473 473 P_____P__P__P_ SH151961 -25.2224 158.128 -1 -25.3657 157.996 -25.4515 158.037 TC -25.2650 158.193 TC 35 998 8 167
1961027S14161 1961 13 SP EA NOT_NAMED 1961-01-31 12:00:00 TS -25.7019 158.200 main 488 488 O_____P__P__O_ jtwc_sh SH151961 -25.6000 158.200 -1 -25.7004 158.104 -25.9072 158.197 TC -25.6000 158.300 TC 35 998 8 162
1961027S14161 1961 13 SP EA NOT_NAMED 1961-01-31 15:00:00 TS -26.0604 158.357 main 516 516 P_____P__P__P_ SH151961 -25.9000 158.378 -1 -26.0250 158.230 -26.3668 158.380 TC -25.9500 158.443 TC 35 998 8 157
1961027S14161 1961 13 SP EA NOT_NAMED 1961-01-31 18:00:00 TS -26.4225 158.540 main 523 520 O_____P__P__O_ jtwc_sh SH151961 -26.2000 158.600 -1 -26.3603 158.380 -26.8298 158.582 TC -26.3000 158.600 TC 35 998 8 156
1961027S14161 1961 13 SP EA NOT_NAMED 1961-01-31 21:00:00 TS -26.8032 158.721 main 526 526 P_____P__P__P_ SH151961 -26.5699 158.793 -1 -26.7274 158.560 -27.2957 158.802 TC -26.6199 158.728 TC 35 998 9 157
1961027S14161 1961 13 SP EA NOT_NAMED 1961-01-31 23:00:00 TS -27.0795 158.855 998 bom main 535 533 P_____O__P__P_ SH151961 -26.8500 158.928 -1 -27.0000 158.700 998 -27.6078 158.958 TC -26.8604 158.833 TC 35 998 9 157
1961027S14161 1961 13 SP EA NOT_NAMED 1961-02-01 00:00:00 TS -27.2289 158.921 main 533 530 O_____P__P__O_ jtwc_sh SH151961 -27.0000 159.000 -1 -27.1514 158.747 -27.7642 159.039 TC -27.0000 158.900 TC 35 998 10 158
1961027S14161 1961 13 SP EA NOT_NAMED 1961-02-01 03:00:00 TS -27.7134 159.148 main 542 542 P_____P__P__P_ SH151961 -27.4700 159.235 -1 -27.6366 158.896 -28.2347 159.291 TC -27.5125 159.170 TC 35 998 11 157
1961027S14161 1961 13 SP EA NOT_NAMED 1961-02-01 06:00:00 TS -28.2428 159.408 main 567 567 O_____P__P__O_ jtwc_sh SH151961 -28.0000 159.500 -1 -28.1646 159.079 -28.7067 159.555 TC -28.1000 159.500 TC 35 998 12 156
1961027S14161 1961 13 SP EA NOT_NAMED 1961-02-01 09:00:00 TS -28.7987 159.695 main 593 593 P_____P__P__P_ SH151961 -28.5849 159.778 -1 -28.7303 159.323 -29.1797 159.830 TC -28.7000 159.850 TC 35 998 12 155
1961027S14161 1961 13 SP MM NOT_NAMED 1961-02-01 12:00:00 TS -29.3516 160.011 main 623 623 O_____P__P__O_ jtwc_sh SH151961 -29.2000 160.100 -1 -29.3286 159.656 -29.6533 160.114 TC -29.3000 160.200 TC 35 998 12 153
1961027S14161 1961 13 SP MM NOT_NAMED 1961-02-01 15:00:00 TS -29.9025 160.342 main 657 657 P_____P__P__P_ SH151961 -29.7995 160.441 -1 -29.9539 160.105 -30.1269 160.404 TC -29.8418 160.449 TC 35 998 13 148
1961027S14161 1961 13 SP MM NOT_NAMED 1961-02-01 18:00:00 TS -30.4667 160.800 998 bom main 716 716 O_____O__O__O_ jtwc_sh SH151961 -30.4000 160.900 -1 -30.6000 160.700 998 -30.6000 160.700 TC 35 998 -30.4000 160.800 TC 35 998 15 141
1961027S14161 1961 13 SP MM NOT_NAMED 1961-02-01 21:00:00 TS -31.0744 161.452 main 795 795 P_____P_____P_ SH151961 -30.9993 161.504 -1 -31.2590 161.450 998 TC -31.0572 161.402 TC 35 998 17 135
1961027S14161 1961 13 SP MM NOT_NAMED 1961-02-01 23:00:00 TS -31.4753 161.968 998 bom main 845 845 P_____O_____P_ SH151961 -31.3995 162.012 -1 -31.7000 162.000 998 TC -31.4949 161.917 TC 35 998 18 130
1961027S14161 1961 13 SP MM NOT_NAMED 1961-02-02 00:00:00 TS -31.6500 162.250 main 873 874 O___________O_ jtwc_sh SH151961 -31.6000 162.300 -1 TC -31.7000 162.200 TC 35 998 19 125
1961027S14161 1961 13 SP MM NOT_NAMED 1961-02-02 03:00:00 TS -32.2000 163.199 main 907 801 P___________P_ SH151961 -32.1928 163.298 -1 TC -32.2072 163.099 TC 37 20 123
1961027S14161 1961 13 SP MM NOT_NAMED 1961-02-02 06:00:00 TS -32.7500 164.250 main 792 694 O___________O_ jtwc_sh SH151961 -32.8000 164.400 -1 TC -32.7000 164.100 TC 40 21 123
1961027S14161 1961 13 SP MM NOT_NAMED 1961-02-02 09:00:00 TS -33.3254 165.288 main 685 580 P___________P_ SH151961 -33.3892 165.453 -1 TC -33.2616 165.122 TC 37 22 125
1961027S14161 1961 13 SP MM NOT_NAMED 1961-02-02 12:00:00 TS -34.0000 166.350 main 571 466 O___________O_ jtwc_sh SH151961 -34.1000 166.500 -1 TC -33.9000 166.200 TC 35 24 129
1961027S14161 1961 13 SP MM NOT_NAMED 1961-02-02 15:00:00 TS -34.8422 167.516 main 466 395 P___________P_ SH151961 -35.0931 167.614 -1 TC -34.5913 167.417 TC 32 25 134
1961027S14161 1961 13 SP MM NOT_NAMED 1961-02-02 18:00:00 TS -35.7500 168.550 main 386 374 O___________O_ jtwc_sh SH151961 -36.1000 168.600 -1 TC -35.4000 168.500 TC 30 24 141
1961027S14161 1961 13 SP MM NOT_NAMED 1961-02-02 21:00:00 TS -36.6852 169.323 main 383 374 P___________P_ SH151961 -36.9041 169.366 -1 TC -36.4663 169.279 TC 32 20 150
1961027S14161 1961 13 SP MM NOT_NAMED 1961-02-03 00:00:00 TS -37.4500 169.750 main 383 384 O___________O_ jtwc_sh SH151961 -37.5000 169.800 -1 TC -37.4000 169.700 TC 35 12 161
1961027S14161 1961 13 SP MM NOT_NAMED 1961-02-03 03:00:00 TS -37.8469 169.830 main 384 374 P___________P_ SH151961 -37.8743 169.887 -1 TC -37.8194 169.773 TC 35 6 188
1961027S14161 1961 13 SP MM NOT_NAMED 1961-02-03 06:00:00 TS -38.0500 169.650 main 379 370 O___________O_ jtwc_sh SH151961 -38.1000 169.700 -1 -38.0000 169.600 TC 35 5 217
1961027S14161 1961 13 SP MM NOT_NAMED 1961-02-03 09:00:00 TS -38.2651 169.434 main 370 366 P___________P_ SH151961 -38.3152 169.430 -1 -38.2150 169.437 TC 35 6 225
1961027S14161 1961 13 SP MM NOT_NAMED 1961-02-03 12:00:00 TS -38.4429 169.157 main 372 367 O___________O_ jtwc_sh SH151961 -38.5000 169.100 -1 -38.4000 169.200 TC 35 6 230
1961027S14161 1961 13 SP MM NOT_NAMED 1961-02-03 15:00:00 TS -38.6317 168.886 main 374 366 P___________P_ SH151961 -38.6949 168.828 -1 -38.6000 168.915 TC 35 6 229
1961027S14161 1961 13 SP MM NOT_NAMED 1961-02-03 18:00:00 TS -38.8250 168.600 main 378 371 O___________O_ jtwc_sh SH151961 -38.9000 168.600 -1 -38.8000 168.600 TC 35 6 231
1961027S14161 1961 13 SP MM NOT_NAMED 1961-02-03 21:00:00 TS -39.0001 168.295 main 385 385 ____________P_ SH151961 -1 -39.0001 168.295 TC 35 6 231
1961027S14161 1961 13 SP MM NOT_NAMED 1961-02-04 00:00:00 TS -39.2000 168.000 main 395 ____________O_ -1 -39.2000 168.000 TC 35 6 229

Digital Typhoon Data and Search

About IBTrACS Database

This database is a web-friendly format of International Best Track Archive for Climate Stewardship (IBTrACS), a global best track data archive curated by NOAA dating back to 1842.

Updated: 2021-10-21